Time;durP1;ratioP1;P1;durP2;ratioP2;P2;SDS_P1;SDS_P2;PMS_P1;PMS_P2;Temp;Humidity;BMP_temperature;BMP_pressure;BME280_temperature;BME280_humidity;BME280_pressure;Samples;Min_cycle;Max_cycle;Signal;HPM_P1;HPM_P2
2023/07/11 00:00:49;;;;;;;7.53;4.10;;;22.50;99.90;;;;;;5032664;28;20021;-46
2023/07/11 00:03:14;;;;;;;5.25;3.83;;;22.40;99.90;;;;;;5032787;28;20033;-48
2023/07/11 00:05:40;;;;;;;8.15;4.05;;;22.30;99.90;;;;;;5032180;28;20094;-49
2023/07/11 00:08:06;;;;;;;4.50;3.92;;;22.30;99.90;;;;;;5032160;28;20061;-48
2023/07/11 00:10:31;;;;;;;8.68;4.15;;;22.30;99.90;;;;;;5032542;28;20030;-50
2023/07/11 00:12:57;;;;;;;8.60;4.05;;;22.30;99.90;;;;;;5032293;28;20029;-50
2023/07/11 00:15:23;;;;;;;9.15;3.63;;;22.20;99.90;;;;;;5053095;22;20421;-53
2023/07/11 00:17:50;;;;;;;5.70;4.10;;;22.10;99.90;;;;;;5031577;28;20030;-54
2023/07/11 00:20:20;;;;;;;9.18;3.83;;;22.00;99.90;;;;;;5032330;28;20096;-50
2023/07/11 00:22:45;;;;;;;6.60;3.80;;;22.00;99.90;;;;;;5032225;28;20035;-54
2023/07/11 00:25:12;;;;;;;4.95;3.60;;;22.00;99.90;;;;;;5031992;28;20393;-53
2023/07/11 00:27:38;;;;;;;6.35;3.75;;;21.90;99.90;;;;;;5031511;28;20033;-50
2023/07/11 00:30:04;;;;;;;4.50;3.75;;;21.80;99.90;;;;;;5031976;28;20039;-52
2023/07/11 00:32:31;;;;;;;5.60;3.70;;;21.80;99.90;;;;;;5032188;28;20045;-50
2023/07/11 00:34:56;;;;;;;8.35;4.13;;;21.80;99.90;;;;;;5031887;28;20499;-51
2023/07/11 00:37:22;;;;;;;5.38;3.90;;;21.80;99.90;;;;;;5031315;28;20583;-52
2023/07/11 00:39:48;;;;;;;9.20;3.55;;;21.70;99.90;;;;;;5031055;28;20105;-47
2023/07/11 00:42:13;;;;;;;4.22;3.80;;;21.80;99.90;;;;;;5031899;28;20060;-47
2023/07/11 00:44:48;;;;;;;6.63;4.38;;;21.70;99.90;;;;;;5031772;28;20473;-49
2023/07/11 00:47:13;;;;;;;7.03;3.83;;;21.80;99.90;;;;;;5031079;28;20060;-49
2023/07/11 00:49:40;;;;;;;5.65;3.92;;;21.80;99.90;;;;;;5031779;28;20489;-49
2023/07/11 00:52:05;;;;;;;6.97;3.45;;;21.80;99.90;;;;;;5031848;28;20021;-53
2023/07/11 00:54:33;;;;;;;7.07;3.70;;;21.80;99.90;;;;;;5031364;28;20645;-50
2023/07/11 00:57:02;;;;;;;6.65;4.47;;;21.70;99.90;;;;;;5031214;28;20022;-52
2023/07/11 00:59:29;;;;;;;8.30;4.13;;;21.60;99.90;;;;;;5031832;28;20409;-48
2023/07/11 01:02:03;;;;;;;5.15;4.25;;;21.60;99.90;;;;;;5031581;28;20116;-46
2023/07/11 01:04:29;;;;;;;7.60;4.20;;;21.60;99.90;;;;;;5031574;28;20037;-50
2023/07/11 01:06:55;;;;;;;5.32;3.78;;;21.70;99.90;;;;;;5030790;28;20030;-51
2023/07/11 01:09:21;;;;;;;7.53;3.95;;;21.50;99.90;;;;;;5031469;28;20036;-48
2023/07/11 01:11:59;;;;;;;8.13;3.97;;;21.50;99.90;;;;;;5031605;28;20156;-50
2023/07/11 01:14:26;;;;;;;6.90;4.00;;;21.40;99.90;;;;;;5031455;28;20326;-45
2023/07/11 01:16:51;;;;;;;9.00;4.22;;;21.30;99.90;;;;;;5030598;28;20159;-50
2023/07/11 01:19:17;;;;;;;5.68;3.35;;;21.30;99.90;;;;;;5031544;28;20533;-48
2023/07/11 01:21:44;;;;;;;10.85;3.78;;;21.30;99.90;;;;;;5031348;28;20036;-46
2023/07/11 01:24:09;;;;;;;8.10;4.05;;;21.30;99.90;;;;;;5031248;28;20047;-48
2023/07/11 01:26:35;;;;;;;6.38;3.75;;;21.30;99.90;;;;;;5030809;28;20473;-47
2023/07/11 01:29:00;;;;;;;6.38;3.55;;;21.30;99.90;;;;;;5031171;28;20033;-48
2023/07/11 01:31:26;;;;;;;6.15;4.68;;;21.30;99.90;;;;;;5031286;28;20389;-53
2023/07/11 01:33:51;;;;;;;4.88;3.92;;;21.30;99.90;;;;;;5031200;28;20478;-50
2023/07/11 01:36:17;;;;;;;5.07;4.13;;;21.30;99.90;;;;;;5030436;28;20033;-47
2023/07/11 01:38:42;;;;;;;10.07;3.95;;;21.30;99.90;;;;;;5030241;28;20029;-50
2023/07/11 01:41:08;;;;;;;7.45;4.93;;;21.30;99.90;;;;;;5031472;28;20049;-45
2023/07/11 01:43:34;;;;;;;4.88;4.38;;;21.20;99.90;;;;;;5031183;28;20029;-46
2023/07/11 01:46:00;;;;;;;10.75;5.15;;;21.00;99.90;;;;;;5030647;28;20033;-48
2023/07/11 01:48:25;;;;;;;8.63;4.38;;;20.80;99.90;;;;;;5031399;28;20029;-46
2023/07/11 01:50:51;;;;;;;10.25;4.65;;;20.70;99.90;;;;;;5031708;28;20026;-49
2023/07/11 01:53:17;;;;;;;7.50;4.63;;;20.50;99.90;;;;;;5031755;28;20072;-47
2023/07/11 01:55:42;;;;;;;6.53;4.18;;;20.50;99.90;;;;;;5031298;28;20494;-51
2023/07/11 01:58:08;;;;;;;11.27;4.40;;;20.60;99.90;;;;;;5031281;28;20018;-49
2023/07/11 02:00:34;;;;;;;5.72;4.13;;;20.50;99.90;;;;;;5029926;28;20018;-48
2023/07/11 02:02:59;;;;;;;4.53;4.13;;;20.50;99.90;;;;;;5030922;28;20056;-51
2023/07/11 02:05:25;;;;;;;6.53;4.53;;;20.40;99.90;;;;;;5031472;28;20104;-49
2023/07/11 02:07:50;;;;;;;5.15;4.22;;;20.40;99.90;;;;;;5032798;28;20105;-47
2023/07/11 02:10:16;;;;;;;15.75;4.80;;;20.40;99.90;;;;;;5034625;28;20075;-46
2023/07/11 02:12:41;;;;;;;6.65;4.07;;;20.40;99.90;;;;;;5033521;28;20067;-50
2023/07/11 02:15:07;;;;;;;5.63;4.30;;;20.40;99.90;;;;;;5034203;28;20065;-46
2023/07/11 02:17:33;;;;;;;6.10;4.18;;;20.50;99.90;;;;;;5033969;28;20030;-47
2023/07/11 02:19:58;;;;;;;6.43;4.25;;;20.50;99.90;;;;;;5033287;28;20033;-52
2023/07/11 02:22:24;;;;;;;4.35;3.95;;;20.60;99.90;;;;;;5034430;28;20037;-51
2023/07/11 02:24:49;;;;;;;6.38;4.18;;;20.50;99.90;;;;;;5034381;28;20521;-49
2023/07/11 02:27:15;;;;;;;8.30;5.05;;;20.30;99.90;;;;;;5033644;28;20033;-46
2023/07/11 02:29:40;;;;;;;6.28;4.70;;;20.30;99.90;;;;;;5034136;28;20038;-50
2023/07/11 02:32:06;;;;;;;8.65;4.07;;;20.20;99.90;;;;;;5032859;28;20013;-46
2023/07/11 02:34:32;;;;;;;6.10;4.50;;;20.20;99.90;;;;;;5034058;28;20026;-50
2023/07/11 02:36:57;;;;;;;7.32;4.53;;;20.20;99.90;;;;;;5033494;28;20393;-46
2023/07/11 02:39:23;;;;;;;4.70;3.72;;;20.30;99.90;;;;;;5033166;28;20079;-48
2023/07/11 02:41:48;;;;;;;6.82;4.25;;;20.30;99.90;;;;;;5034083;28;20401;-49
2023/07/11 02:44:14;;;;;;;10.48;4.60;;;20.30;99.90;;;;;;5033551;28;20033;-49
2023/07/11 02:46:39;;;;;;;8.05;4.65;;;20.30;99.90;;;;;;5033323;28;20560;-51
2023/07/11 02:49:08;;;;;;;5.25;3.75;;;20.30;99.90;;;;;;5033925;28;20109;-50
2023/07/11 02:51:35;;;;;;;4.55;3.85;;;20.30;99.90;;;;;;5033885;28;20029;-48
2023/07/11 02:54:02;;;;;;;5.28;4.10;;;20.20;99.90;;;;;;5033869;28;20026;-52
2023/07/11 02:56:27;;;;;;;8.98;3.97;;;20.10;99.90;;;;;;5032937;28;20512;-51
2023/07/11 02:58:53;;;;;;;7.85;4.53;;;20.00;99.90;;;;;;5033684;28;20029;-48
2023/07/11 03:01:19;;;;;;;6.40;4.20;;;20.00;99.90;;;;;;5033695;28;20030;-46
2023/07/11 03:03:45;;;;;;;9.93;4.50;;;20.00;99.90;;;;;;5033635;28;20079;-52
2023/07/11 03:06:11;;;;;;;6.95;4.22;;;20.00;99.90;;;;;;5032971;28;20030;-49
2023/07/11 03:08:37;;;;;;;8.35;4.38;;;20.00;99.90;;;;;;5032382;28;20017;-48
2023/07/11 03:11:02;;;;;;;9.63;4.40;;;20.10;99.90;;;;;;5033498;28;20029;-49
2023/07/11 03:13:28;;;;;;;9.40;4.88;;;20.00;99.90;;;;;;5033290;28;20478;-48
2023/07/11 03:15:54;;;;;;;7.65;4.22;;;20.00;99.90;;;;;;5032623;28;20111;-44
2023/07/11 03:18:19;;;;;;;7.95;4.40;;;20.00;99.90;;;;;;5032166;28;20027;-51
2023/07/11 03:20:45;;;;;;;4.32;3.88;;;20.00;99.90;;;;;;5033596;28;20033;-48
2023/07/11 03:23:13;;;;;;;7.63;4.47;;;20.00;99.90;;;;;;5033314;28;20021;-46
2023/07/11 03:25:39;;;;;;;5.28;3.90;;;19.90;99.90;;;;;;5032657;28;20416;-47
2023/07/11 03:28:05;;;;;;;5.65;4.22;;;19.90;99.90;;;;;;5032869;28;20083;-51
2023/07/11 03:30:35;;;;;;;6.35;3.70;;;20.00;99.90;;;;;;5033312;28;20033;-50
2023/07/11 03:33:01;;;;;;;5.57;4.38;;;20.10;99.90;;;;;;5033402;28;20030;-51
2023/07/11 03:35:26;;;;;;;5.22;4.55;;;20.10;99.90;;;;;;5033022;28;20440;-51
2023/07/11 03:37:52;;;;;;;5.63;4.25;;;20.00;99.90;;;;;;5031358;28;20456;-50
2023/07/11 03:40:17;;;;;;;7.40;4.40;;;19.90;99.90;;;;;;5033069;28;20025;-52
2023/07/11 03:42:43;;;;;;;6.43;5.00;;;19.90;99.90;;;;;;5032940;28;20022;-51
2023/07/11 03:45:09;;;;;;;7.70;5.18;;;19.90;99.90;;;;;;5033346;28;20520;-48
2023/07/11 03:47:34;;;;;;;7.68;4.05;;;19.90;99.90;;;;;;5032373;28;20045;-52
2023/07/11 03:50:00;;;;;;;7.72;4.15;;;19.90;99.90;;;;;;5032757;28;20022;-51
2023/07/11 03:52:26;;;;;;;5.22;3.83;;;19.90;99.90;;;;;;5032549;28;20026;-50
2023/07/11 03:54:51;;;;;;;8.73;4.50;;;20.00;99.90;;;;;;5032673;28;20022;-49
2023/07/11 03:57:17;;;;;;;5.90;4.68;;;20.00;99.90;;;;;;5030840;28;20028;-50
2023/07/11 03:59:42;;;;;;;5.55;3.97;;;20.00;99.90;;;;;;5032685;28;20493;-48
2023/07/11 04:02:08;;;;;;;4.90;4.05;;;20.00;99.90;;;;;;5032590;28;20026;-53
2023/07/11 04:04:33;;;;;;;5.55;4.07;;;20.00;99.90;;;;;;5032427;28;20029;-50
2023/07/11 04:06:59;;;;;;;5.93;4.80;;;20.10;99.90;;;;;;5031778;28;20045;-49
2023/07/11 04:09:24;;;;;;;8.07;4.85;;;20.10;99.90;;;;;;5031386;28;20026;-46
2023/07/11 04:11:50;;;;;;;8.82;4.60;;;20.10;99.90;;;;;;5032410;28;20029;-47
2023/07/11 04:14:15;;;;;;;5.45;4.35;;;20.10;99.90;;;;;;5032352;28;20017;-47
2023/07/11 04:16:41;;;;;;;6.03;4.38;;;20.20;99.90;;;;;;5031633;28;20047;-46
2023/07/11 04:19:06;;;;;;;7.35;5.88;;;20.20;99.90;;;;;;5032454;28;20052;-46
2023/07/11 04:21:32;;;;;;;15.93;4.85;;;20.30;99.90;;;;;;5032296;28;20025;-48
2023/07/11 04:23:58;;;;;;;9.70;5.30;;;20.30;99.90;;;;;;5032995;28;20034;-49
2023/07/11 04:26:23;;;;;;;8.05;5.68;;;20.40;99.90;;;;;;5031269;28;20033;-50
2023/07/11 04:28:48;;;;;;;9.35;5.00;;;20.30;99.90;;;;;;5031668;28;20095;-47
2023/07/11 04:31:14;;;;;;;8.93;5.15;;;20.30;99.90;;;;;;5032049;28;20025;-50
2023/07/11 04:33:39;;;;;;;6.13;4.88;;;20.30;99.90;;;;;;5031932;28;20025;-48
2023/07/11 04:36:10;;;;;;;5.90;5.18;;;20.40;99.90;;;;;;5031060;28;20378;-50
2023/07/11 04:38:37;;;;;;;8.77;5.60;;;20.40;99.90;;;;;;5030906;28;20029;-49
2023/07/11 04:41:04;;;;;;;6.20;5.55;;;20.60;99.90;;;;;;5031795;28;20041;-48
2023/07/11 04:43:29;;;;;;;6.60;5.32;;;20.70;99.90;;;;;;5031800;28;20030;-51
2023/07/11 04:45:58;;;;;;;8.63;5.28;;;20.80;99.90;;;;;;5031099;28;20071;-48
2023/07/11 04:48:24;;;;;;;9.98;5.53;;;21.00;99.90;;;;;;5032097;28;20021;-47
2023/07/11 04:51:03;;;;;;;10.63;5.32;;;21.10;99.90;;;;;;5032088;28;20087;-46
2023/07/11 04:53:29;;;;;;;8.43;4.90;;;21.30;99.90;;;;;;5031691;28;20024;-47
2023/07/11 04:55:59;;;;;;;8.25;5.13;;;21.50;99.90;;;;;;5030997;28;20022;-47
2023/07/11 04:58:29;;;;;;;18.38;5.95;;;21.70;99.90;;;;;;5031971;28;20029;-50
2023/07/11 05:01:00;;;;;;;13.32;5.20;;;22.00;99.90;;;;;;5031652;28;20423;-50
2023/07/11 05:03:25;;;;;;;8.82;5.13;;;22.30;99.90;;;;;;5031540;28;20018;-49
2023/07/11 05:05:51;;;;;;;5.82;4.70;;;22.80;99.90;;;;;;5031124;28;20032;-49
2023/07/11 05:08:16;;;;;;;11.23;4.90;;;23.30;99.90;;;;;;5031157;28;20397;-44
2023/07/11 05:11:07;;;;;;;5.97;4.40;;;24.00;99.90;;;;;;5031273;28;20120;-49
2023/07/11 05:13:34;;;;;;;6.55;4.65;;;24.70;99.90;;;;;;5024118;28;20397;-48
2023/07/11 05:16:05;;;;;;;5.75;4.45;;;25.40;99.90;;;;;;5029606;28;20067;-48
2023/07/11 05:18:31;;;;;;;5.45;4.60;;;25.90;99.10;;;;;;5031515;28;20036;-53
2023/07/11 05:20:57;;;;;;;7.95;4.70;;;26.30;98.20;;;;;;5031600;28;20043;-47
2023/07/11 05:23:25;;;;;;;6.43;4.15;;;26.80;96.60;;;;;;5031392;28;20087;-49
2023/07/11 05:25:51;;;;;;;6.35;4.50;;;27.30;95.90;;;;;;5030785;28;20030;-51
2023/07/11 05:28:17;;;;;;;6.85;3.97;;;27.70;95.00;;;;;;5031336;28;20029;-49
2023/07/11 05:30:43;;;;;;;11.85;4.60;;;28.00;94.30;;;;;;5031576;28;20021;-50
2023/07/11 05:33:09;;;;;;;8.48;4.10;;;28.20;94.10;;;;;;5031591;28;20033;-50
2023/07/11 05:35:46;;;;;;;4.68;4.10;;;28.30;93.80;;;;;;5031133;28;20018;-54
2023/07/11 05:38:14;;;;;;;6.97;4.13;;;28.70;93.50;;;;;;5029969;28;20469;-52
2023/07/11 05:40:42;;;;;;;8.52;4.35;;;28.80;92.80;;;;;;5031989;28;20390;-49
2023/07/11 05:43:08;;;;;;;7.35;4.53;;;29.10;92.40;;;;;;5035120;28;20017;-49
2023/07/11 05:45:33;;;;;;;6.82;3.65;;;29.40;91.70;;;;;;5035373;28;20071;-53
2023/07/11 05:47:59;;;;;;;7.43;4.40;;;29.50;91.30;;;;;;5034306;28;20128;-49
2023/07/11 05:50:25;;;;;;;4.90;3.95;;;29.60;91.10;;;;;;5034663;28;20029;-51
2023/07/11 05:52:51;;;;;;;10.00;4.32;;;29.70;90.80;;;;;;5033632;28;20076;-51
2023/07/11 05:55:16;;;;;;;5.15;4.25;;;29.60;90.80;;;;;;5034741;28;20025;-51
2023/07/11 05:57:42;;;;;;;6.97;4.30;;;29.90;90.80;;;;;;5034062;28;20584;-50
2023/07/11 06:00:09;;;;;;;6.30;4.38;;;30.20;90.50;;;;;;5034787;28;20060;-53
2023/07/11 06:02:35;;;;;;;7.22;4.47;;;30.20;89.50;;;;;;5034721;28;20029;-50
2023/07/11 06:05:01;;;;;;;4.90;4.40;;;30.30;89.30;;;;;;5034583;28;20025;-47
2023/07/11 06:07:28;;;;;;;5.65;4.00;;;30.60;87.90;;;;;;5033959;28;20113;-51
2023/07/11 06:09:55;;;;;;;5.10;4.57;;;30.70;87.50;;;;;;5034886;28;20053;-50
2023/07/11 06:12:21;;;;;;;13.25;4.68;;;30.70;86.20;;;;;;5034632;28;20036;-53
2023/07/11 06:14:49;;;;;;;5.47;4.93;;;30.70;86.00;;;;;;5034426;28;20486;-49
2023/07/11 06:17:14;;;;;;;6.57;4.53;;;30.90;85.90;;;;;;5055734;22;20049;-53
2023/07/11 06:19:40;;;;;;;6.15;4.82;;;31.10;85.90;;;;;;5034521;28;20022;-49
2023/07/11 06:22:06;;;;;;;4.85;4.05;;;31.20;85.70;;;;;;5034635;28;20030;-51
2023/07/11 06:24:31;;;;;;;8.30;4.35;;;31.60;84.50;;;;;;5034262;28;20021;-48
2023/07/11 06:26:57;;;;;;;6.30;3.90;;;31.40;84.00;;;;;;5033935;28;20021;-48
2023/07/11 06:29:22;;;;;;;5.35;3.78;;;31.00;84.90;;;;;;5034597;28;20428;-47
2023/07/11 06:31:48;;;;;;;9.13;4.75;;;31.10;85.20;;;;;;5035008;28;20040;-50
2023/07/11 06:34:13;;;;;;;6.07;4.05;;;31.40;84.70;;;;;;5034726;28;20539;-51
2023/07/11 06:36:39;;;;;;;9.90;4.40;;;31.30;84.70;;;;;;5033635;28;20365;-51
2023/07/11 06:39:05;;;;;;;8.13;4.35;;;31.10;85.20;;;;;;5033111;28;20117;-49
2023/07/11 06:41:30;;;;;;;5.22;4.38;;;31.40;85.00;;;;;;5034270;28;20045;-51
2023/07/11 06:43:56;;;;;;;5.63;4.53;;;31.80;84.30;;;;;;5034152;28;20031;-47
2023/07/11 06:46:22;;;;;;;10.80;4.65;;;31.80;84.00;;;;;;5033352;28;20477;-49
2023/07/11 06:48:47;;;;;;;8.27;4.15;;;32.00;83.70;;;;;;5034122;28;20025;-47
2023/07/11 06:51:13;;;;;;;12.27;4.07;;;32.30;83.20;;;;;;5033669;28;20021;-47
2023/07/11 06:53:38;;;;;;;10.00;4.28;;;33.00;82.30;;;;;;5032641;28;20404;-47
2023/07/11 06:56:04;;;;;;;8.00;4.80;;;33.20;80.10;;;;;;5033327;28;20034;-48
2023/07/11 06:58:30;;;;;;;9.35;4.65;;;33.30;79.50;;;;;;5033845;28;20065;-50
2023/07/11 07:01:01;;;;;;;7.65;5.05;;;33.40;79.30;;;;;;5033841;28;20489;-52
2023/07/11 07:03:27;;;;;;;9.43;4.18;;;33.90;78.50;;;;;;5033796;28;20033;-48
2023/07/11 07:06:00;;;;;;;7.15;4.32;;;34.10;77.40;;;;;;5033247;28;20041;-47
2023/07/11 07:08:26;;;;;;;13.48;3.80;;;34.50;76.70;;;;;;5033657;28;20409;-47
2023/07/11 07:10:52;;;;;;;10.73;4.60;;;34.60;75.30;;;;;;5033608;28;20013;-47
2023/07/11 07:13:19;;;;;;;9.07;4.20;;;35.00;73.60;;;;;;5033574;28;20021;-48
2023/07/11 07:15:50;;;;;;;8.35;3.70;;;35.10;73.20;;;;;;5032919;28;20083;-47
2023/07/11 07:18:16;;;;;;;10.57;3.78;;;35.40;73.10;;;;;;5033592;28;20505;-48
2023/07/11 07:20:44;;;;;;;8.77;4.13;;;35.70;72.30;;;;;;5032580;28;20025;-50
2023/07/11 07:23:09;;;;;;;26.92;5.72;;;36.10;71.40;;;;;;5033425;28;20025;-50
2023/07/11 07:25:36;;;;;;;15.73;4.03;;;36.20;70.80;;;;;;5033373;28;20028;-51
2023/07/11 07:28:02;;;;;;;15.43;4.32;;;36.40;69.50;;;;;;5032680;28;20033;-49
2023/07/11 07:30:28;;;;;;;9.30;3.85;;;36.40;70.00;;;;;;5033353;28;20029;-51
2023/07/11 07:32:53;;;;;;;16.15;3.85;;;36.60;68.90;;;;;;5033309;28;20104;-52
2023/07/11 07:35:19;;;;;;;15.55;4.10;;;36.70;69.10;;;;;;5033133;28;20440;-47
2023/07/11 07:37:44;;;;;;;8.95;3.80;;;36.90;68.70;;;;;;5031379;28;20025;-49
2023/07/11 07:40:10;;;;;;;5.43;3.35;;;37.30;68.80;;;;;;5032903;28;20151;-50
2023/07/11 07:42:36;;;;;;;7.72;3.63;;;37.40;66.80;;;;;;5033045;28;20029;-48
2023/07/11 07:45:01;;;;;;;15.10;3.30;;;37.40;67.40;;;;;;5032688;28;20029;-48
2023/07/11 07:47:27;;;;;;;12.90;3.75;;;38.00;65.10;;;;;;5032465;28;20072;-50
2023/07/11 07:49:52;;;;;;;10.00;3.88;;;38.10;64.70;;;;;;5032964;28;20029;-48
2023/07/11 07:52:18;;;;;;;4.72;3.13;;;38.00;64.50;;;;;;5032765;28;20523;-49
2023/07/11 07:54:43;;;;;;;9.05;3.25;;;38.00;64.10;;;;;;5032966;28;20022;-47
2023/07/11 07:57:09;;;;;;;11.93;3.22;;;37.90;63.90;;;;;;5032195;28;20026;-45
2023/07/11 07:59:34;;;;;;;10.85;3.47;;;37.80;62.70;;;;;;5032904;28;20530;-53
2023/07/11 08:02:00;;;;;;;12.50;3.13;;;37.90;62.90;;;;;;5032729;28;20025;-51
2023/07/11 08:04:25;;;;;;;9.35;2.92;;;38.20;62.40;;;;;;5030572;28;20037;-50
2023/07/11 08:06:51;;;;;;;6.75;2.97;;;38.10;61.60;;;;;;5031866;28;20057;-50
2023/07/11 08:09:17;;;;;;;11.25;3.65;;;38.20;61.90;;;;;;5031201;28;20116;-53
2023/07/11 08:11:44;;;;;;;7.28;3.47;;;38.10;61.80;;;;;;5032533;28;20018;-50
2023/07/11 08:14:09;;;;;;;7.25;3.08;;;38.00;61.90;;;;;;5032644;28;20029;-47
2023/07/11 08:16:37;;;;;;;7.90;3.08;;;38.30;61.30;;;;;;5031712;28;20497;-47
2023/07/11 08:19:04;;;;;;;4.22;2.85;;;39.00;61.10;;;;;;5032432;28;20516;-50
2023/07/11 08:21:30;;;;;;;3.60;3.17;;;39.50;60.10;;;;;;5032755;28;20033;-49
2023/07/11 08:23:55;;;;;;;13.57;3.53;;;39.10;58.50;;;;;;5032115;28;20421;-49
2023/07/11 08:26:22;;;;;;;4.93;3.47;;;38.50;59.50;;;;;;5031502;28;20090;-48
2023/07/11 08:28:49;;;;;;;7.00;3.67;;;38.30;59.20;;;;;;5032260;28;20108;-53
2023/07/11 08:31:15;;;;;;;10.50;3.97;;;37.90;59.70;;;;;;5032282;28;20018;-48
2023/07/11 08:33:41;;;;;;;6.82;3.92;;;37.50;60.60;;;;;;5032009;28;20155;-49
2023/07/11 08:36:06;;;;;;;8.40;3.40;;;37.20;60.30;;;;;;5031234;28;20501;-49
2023/07/11 08:38:32;;;;;;;12.13;4.00;;;36.60;61.20;;;;;;5031051;28;20025;-47
2023/07/11 08:41:07;;;;;;;12.18;3.70;;;36.40;60.90;;;;;;5032314;28;20107;-51
2023/07/11 08:43:32;;;;;;;8.88;3.47;;;36.40;62.20;;;;;;5032402;28;20025;-47
2023/07/11 08:46:06;;;;;;;6.55;3.45;;;36.20;60.90;;;;;;5031193;28;20037;-45
2023/07/11 08:48:36;;;;;;;7.55;3.30;;;36.20;61.20;;;;;;5031874;28;20026;-45
2023/07/11 08:51:22;;;;;;;5.93;2.97;;;36.00;61.50;;;;;;5031914;28;20026;-45
2023/07/11 08:53:57;;;;;;;10.70;3.83;;;36.10;62.10;;;;;;5031415;28;20529;-51
2023/07/11 08:56:36;;;;;;;4.82;3.50;;;35.80;61.50;;;;;;5031441;28;20022;-48
2023/07/11 08:59:13;;;;;;;6.45;3.53;;;35.80;61.70;;;;;;5031964;28;20075;-49
2023/07/11 09:02:06;;;;;;;14.75;3.60;;;35.50;62.50;;;;;;5031924;28;20031;-50
2023/07/11 09:04:32;;;;;;;8.13;3.17;;;35.40;62.20;;;;;;5032111;28;20033;-46
2023/07/11 09:07:04;;;;;;;5.60;3.70;;;35.30;62.80;;;;;;5030974;28;20025;-47
2023/07/11 09:09:32;;;;;;;4.75;3.35;;;35.40;63.20;;;;;;5031886;28;20021;-47
2023/07/11 09:12:40;;;;;;;4.35;3.63;;;35.40;63.00;;;;;;5031684;28;20449;-46
2023/07/11 09:15:22;;;;;;;3.92;3.55;;;35.40;63.50;;;;;;5031871;28;20413;-49
2023/07/11 09:18:05;;;;;;;6.38;3.78;;;35.40;63.40;;;;;;5031322;28;20567;-49
2023/07/11 09:20:46;;;;;;;4.35;3.83;;;35.50;62.60;;;;;;5031934;28;20025;-46
2023/07/11 09:23:38;;;;;;;6.65;3.33;;;35.30;62.90;;;;;;5031605;28;20021;-50
2023/07/11 09:26:08;;;;;;;4.70;3.65;;;35.10;63.80;;;;;;5031073;28;20021;-46
2023/07/11 09:28:35;;;;;;;4.70;3.97;;;34.70;64.40;;;;;;5031636;28;20030;-47
2023/07/11 09:31:09;;;;;;;9.63;3.92;;;34.60;64.70;;;;;;5032258;28;20017;-48
2023/07/11 09:33:38;;;;;;;6.22;3.47;;;34.50;64.20;;;;;;5031145;28;20450;-51
2023/07/11 09:36:24;;;;;;;4.95;3.53;;;34.40;65.10;;;;;;5030288;28;20033;-53
2023/07/11 09:39:08;;;;;;;5.35;3.67;;;34.40;65.20;;;;;;5030311;28;20044;-48
2023/07/11 09:41:43;;;;;;;6.57;3.50;;;34.50;64.50;;;;;;5031573;28;20487;-50
2023/07/11 09:44:10;;;;;;;6.13;3.75;;;34.50;64.40;;;;;;5031135;28;20045;-48
2023/07/11 09:46:36;;;;;;;6.80;4.07;;;34.50;65.20;;;;;;5030538;28;20028;-48
2023/07/11 09:49:04;;;;;;;11.43;4.00;;;34.70;66.60;;;;;;5031088;28;20033;-46
2023/07/11 09:51:39;;;;;;;9.77;4.82;;;34.90;65.90;;;;;;5031328;28;20026;-45
2023/07/11 09:54:22;;;;;;;10.23;5.32;;;34.80;65.30;;;;;;5030967;28;20018;-46
2023/07/11 09:56:50;;;;;;;4.95;4.43;;;34.40;66.00;;;;;;5030694;28;20022;-48
2023/07/11 09:59:17;;;;;;;17.98;4.28;;;34.20;65.80;;;;;;5031090;28;20100;-51
2023/07/11 10:01:42;;;;;;;5.90;4.10;;;34.00;66.70;;;;;;5030944;28;20104;-48
2023/07/11 10:04:15;;;;;;;5.57;3.90;;;33.90;66.80;;;;;;5030976;28;20111;-48
2023/07/11 10:06:53;;;;;;;5.75;4.28;;;33.70;67.00;;;;;;5030396;28;20121;-49
2023/07/11 10:09:24;;;;;;;5.35;3.65;;;33.70;67.80;;;;;;5031004;28;20021;-51
2023/07/11 10:11:59;;;;;;;8.90;3.35;;;33.70;67.10;;;;;;5031192;28;20032;-51
2023/07/11 10:14:32;;;;;;;5.32;3.60;;;33.60;66.60;;;;;;5030759;28;20024;-48
2023/07/11 10:16:58;;;;;;;5.60;3.22;;;33.40;67.40;;;;;;5030483;28;20032;-51
2023/07/11 10:19:25;;;;;;;4.97;3.75;;;33.40;68.60;;;;;;5030672;28;20049;-50
2023/07/11 10:21:52;;;;;;;4.65;3.50;;;33.40;68.40;;;;;;5031027;28;20025;-48
2023/07/11 10:24:22;;;;;;;3.25;2.95;;;33.30;68.70;;;;;;5031017;28;20416;-51
2023/07/11 10:26:54;;;;;;;5.90;3.78;;;33.30;68.20;;;;;;5031448;28;20026;-53
2023/07/11 10:29:24;;;;;;;5.78;3.42;;;33.00;69.30;;;;;;5034572;28;20061;-49
2023/07/11 10:32:04;;;;;;;5.97;3.83;;;32.80;69.40;;;;;;5034536;28;20018;-49
2023/07/11 10:34:39;;;;;;;6.43;3.95;;;32.60;70.20;;;;;;5034458;28;20017;-53
2023/07/11 10:37:17;;;;;;;5.78;3.78;;;32.60;71.00;;;;;;5032424;28;20026;-46
2023/07/11 10:39:48;;;;;;;5.03;4.03;;;32.50;71.10;;;;;;5033512;28;20021;-53
2023/07/11 10:42:50;;;;;;;7.20;3.90;;;32.40;71.90;;;;;;5034199;28;20396;-47
2023/07/11 10:45:20;;;;;;;4.90;3.65;;;32.30;72.30;;;;;;5002465;28;20038;-46
2023/07/11 10:48:20;;;;;;;5.65;3.90;;;32.30;71.70;;;;;;5033502;28;20438;-52
2023/07/11 10:50:55;;;;;;;8.18;4.28;;;32.30;71.80;;;;;;5034039;28;20039;-46
2023/07/11 10:53:42;;;;;;;5.68;4.40;;;32.20;73.10;;;;;;5033992;28;20057;-46
2023/07/11 10:56:22;;;;;;;9.10;4.03;;;32.20;73.70;;;;;;5033189;28;20029;-49
2023/07/11 10:58:48;;;;;;;6.10;4.20;;;32.00;74.00;;;;;;5033959;28;20604;-51
2023/07/11 11:01:23;;;;;;;9.70;3.80;;;32.10;74.00;;;;;;5034316;28;20397;-50
2023/07/11 11:03:51;;;;;;;5.70;3.83;;;31.80;74.70;;;;;;5033719;28;20216;-48
2023/07/11 11:06:42;;;;;;;6.07;3.88;;;31.80;75.70;;;;;;5032951;28;20034;-47
2023/07/11 11:09:07;;;;;;;9.05;4.43;;;31.80;77.70;;;;;;5033494;28;20033;-50
2023/07/11 11:11:33;;;;;;;6.22;4.30;;;31.80;78.20;;;;;;5033748;28;20021;-48
2023/07/11 11:14:11;;;;;;;6.70;4.90;;;31.80;78.00;;;;;;5032076;28;20040;-49
2023/07/11 11:16:45;;;;;;;9.50;4.78;;;31.80;78.10;;;;;;5032748;28;20061;-49
2023/07/11 11:19:27;;;;;;;10.43;4.95;;;31.80;79.30;;;;;;5034040;28;20021;-50
2023/07/11 11:22:16;;;;;;;10.73;4.50;;;31.80;79.20;;;;;;5032201;28;20083;-50
2023/07/11 11:24:57;;;;;;;6.38;4.90;;;31.80;79.50;;;;;;5033121;28;20021;-53
2023/07/11 11:27:37;;;;;;;9.50;5.07;;;31.70;79.20;;;;;;5032618;28;20026;-50
2023/07/11 11:30:30;;;;;;;7.82;4.90;;;31.60;79.80;;;;;;5033156;28;20033;-47
2023/07/11 11:33:16;;;;;;;7.55;5.20;;;31.70;80.40;;;;;;5033109;28;20093;-47
2023/07/11 11:36:09;;;;;;;7.13;5.50;;;31.60;79.40;;;;;;5032791;28;20025;-47
2023/07/11 11:38:51;;;;;;;6.93;4.82;;;31.70;79.80;;;;;;5031300;28;20049;-50
2023/07/11 11:41:21;;;;;;;16.58;5.32;;;31.70;79.30;;;;;;5033133;28;20096;-50
2023/07/11 11:43:50;;;;;;;14.07;5.70;;;31.70;78.80;;;;;;5033099;28;20059;-47
2023/07/11 11:46:17;;;;;;;9.85;5.18;;;31.80;79.40;;;;;;5032289;28;20128;-48
2023/07/11 11:48:43;;;;;;;7.70;5.47;;;31.80;79.50;;;;;;5033185;28;20036;-49
2023/07/11 11:51:13;;;;;;;5.68;5.15;;;31.80;79.40;;;;;;5033065;28;20120;-52
2023/07/11 11:54:00;;;;;;;9.85;5.40;;;31.80;78.20;;;;;;5032871;28;20079;-50
2023/07/11 11:56:27;;;;;;;9.43;5.68;;;31.80;77.30;;;;;;5031822;28;20068;-48
2023/07/11 11:59:05;;;;;;;8.98;5.13;;;32.00;77.70;;;;;;5033281;28;20093;-50
2023/07/11 12:01:38;;;;;;;6.90;5.18;;;32.00;78.20;;;;;;5032987;28;20405;-47
2023/07/11 12:04:32;;;;;;;7.82;4.82;;;32.10;78.80;;;;;;5032747;28;20069;-47
2023/07/11 12:07:05;;;;;;;10.93;5.20;;;32.20;78.50;;;;;;5032043;28;20036;-46
2023/07/11 12:09:49;;;;;;;7.15;4.75;;;32.30;77.50;;;;;;5031491;28;20546;-46
2023/07/11 12:12:21;;;;;;;9.45;4.80;;;32.20;77.00;;;;;;5032794;28;20044;-48
2023/07/11 12:14:50;;;;;;;8.20;4.90;;;32.30;77.40;;;;;;5032663;28;20017;-46
2023/07/11 12:17:33;;;;;;;7.25;5.78;;;32.30;77.60;;;;;;5032176;28;20125;-48
2023/07/11 12:20:08;;;;;;;8.35;5.65;;;32.30;75.90;;;;;;5032509;28;20033;-48
2023/07/11 12:22:36;;;;;;;7.55;6.45;;;32.30;77.00;;;;;;5031333;28;20032;-44
2023/07/11 12:25:24;;;;;;;8.98;5.85;;;32.20;77.30;;;;;;5032343;28;20030;-51
2023/07/11 12:28:00;;;;;;;8.27;5.80;;;32.30;77.70;;;;;;5031829;28;20049;-47
2023/07/11 12:30:40;;;;;;;9.73;5.63;;;32.30;76.90;;;;;;5033082;28;20028;-47
2023/07/11 12:33:42;;;;;;;8.55;5.75;;;32.30;77.10;;;;;;5032703;28;20072;-48
2023/07/11 12:36:28;;;;;;;6.88;5.13;;;32.30;77.80;;;;;;4970638;28;20027;-48
2023/07/11 12:39:19;;;;;;;6.43;4.75;;;32.30;77.50;;;;;;5028060;28;20103;-47
2023/07/11 12:42:12;;;;;;;8.02;4.93;;;32.40;77.50;;;;;;5032144;28;20108;-49
2023/07/11 12:44:37;;;;;;;10.77;4.65;;;32.40;77.50;;;;;;5031615;28;20029;-48
2023/07/11 12:47:12;;;;;;;15.35;4.95;;;32.30;77.00;;;;;;5031246;28;20021;-50
2023/07/11 12:49:41;;;;;;;8.52;5.15;;;32.20;77.90;;;;;;5031613;28;20026;-50
2023/07/11 12:52:12;;;;;;;8.70;4.78;;;32.30;79.00;;;;;;5031938;28;20435;-48
2023/07/11 12:54:39;;;;;;;9.63;5.03;;;32.40;79.50;;;;;;5031687;28;20048;-49
2023/07/11 12:57:14;;;;;;;7.47;5.40;;;32.50;75.90;;;;;;5031004;28;20504;-51